Esperance, New York
Current Conditions -  °F | °C
As of 12:55 AM on Sunday 23 Nov 2014 (Local Time) from KNY0 Reporting Station
Overcast Overcast  
Wind Chill: 28°   Ceiling: 2200
Heat Index: 35°   Visibility: 5mi
Dew Point: 33°   Wind: 9mph
Humidity: 93%   Direction: 250°WSW
Pressure: 30.04"   Gusts: NA
Location:  42.76°N, 74.26°W
Report Text: KNY0 230555Z AUTO 25008KT 5SM OVC022 02/01 A3004 RMK AO2 P0002 60003 T00160006 10016 21018 400161089
Loading
Personal Weather Stations






























Interactive Weather Map New forecast layout! Learn more

10-Day Weather Forecast

Advertisements
Track Severe Weather on mobile